Time;durP1;ratioP1;P1;durP2;ratioP2;P2;SDS_P1;SDS_P2;PMS_P1;PMS_P2;Temp;Humidity;BMP_temperature;BMP_pressure;BME280_temperature;BME280_humidity;BME280_pressure;Samples;Min_cycle;Max_cycle;Signal;HPM_P1;HPM_P2
2022/06/27 00:02:25;;;;;;;8.32;7.07;;;17.90;99.90;;;;;;5014558;28;20072;-66
2022/06/27 00:04:51;;;;;;;9.73;7.38;;;17.90;99.90;;;;;;5014559;28;20372;-67
2022/06/27 00:07:18;;;;;;;11.27;8.65;;;17.90;99.90;;;;;;5010405;28;20056;-66
2022/06/27 00:09:44;;;;;;;10.35;8.30;;;17.90;99.90;;;;;;4994469;28;20442;-66
2022/06/27 00:12:11;;;;;;;11.20;8.77;;;18.00;99.90;;;;;;4998773;28;20045;-67
2022/06/27 00:14:37;;;;;;;10.88;8.93;;;18.00;99.90;;;;;;5019930;28;20094;-67
2022/06/27 00:17:03;;;;;;;11.50;9.10;;;18.00;99.90;;;;;;4994449;28;20050;-67
2022/06/27 00:19:29;;;;;;;12.45;9.45;;;18.00;99.90;;;;;;5011103;28;20413;-68
2022/06/27 00:21:56;;;;;;;13.38;9.50;;;18.00;99.90;;;;;;4994806;28;20088;-68
2022/06/27 00:24:22;;;;;;;13.57;9.85;;;18.00;99.90;;;;;;4978682;28;20050;-66
2022/06/27 00:26:48;;;;;;;13.30;10.45;;;18.00;99.90;;;;;;5010310;28;20132;-66
2022/06/27 00:29:14;;;;;;;12.77;10.05;;;18.00;99.90;;;;;;4994785;28;20074;-67
2022/06/27 00:31:41;;;;;;;13.68;10.75;;;18.00;99.90;;;;;;5010731;28;20099;-67
2022/06/27 00:34:07;;;;;;;14.13;11.50;;;17.90;99.90;;;;;;5010928;28;20046;-67
2022/06/27 00:36:33;;;;;;;14.05;11.18;;;17.90;99.90;;;;;;5010705;28;20049;-67
2022/06/27 00:38:59;;;;;;;14.80;11.18;;;17.90;99.90;;;;;;5010562;28;20041;-67
2022/06/27 00:41:25;;;;;;;13.77;10.50;;;17.90;99.90;;;;;;4994367;28;20173;-66
2022/06/27 00:43:51;;;;;;;14.98;11.77;;;17.90;99.90;;;;;;5010990;28;20129;-66
2022/06/27 00:46:17;;;;;;;13.85;10.40;;;17.90;99.90;;;;;;5010599;28;20046;-66
2022/06/27 00:48:43;;;;;;;14.45;11.15;;;17.90;99.90;;;;;;5010484;28;20042;-67
2022/06/27 00:51:09;;;;;;;15.00;11.75;;;17.90;99.90;;;;;;5010551;28;20053;-66
2022/06/27 00:53:36;;;;;;;15.27;11.55;;;17.90;99.90;;;;;;5010852;28;20038;-66
2022/06/27 00:56:02;;;;;;;17.17;11.43;;;17.90;99.90;;;;;;4994508;28;20238;-67
2022/06/27 00:58:28;;;;;;;15.52;13.18;;;17.90;99.90;;;;;;4993865;28;20038;-67
2022/06/27 01:00:54;;;;;;;15.35;12.18;;;17.90;99.90;;;;;;4994192;28;20460;-66
2022/06/27 01:03:20;;;;;;;18.33;12.23;;;17.80;99.90;;;;;;4994273;28;20050;-68
2022/06/27 01:05:51;;;;;;;18.95;13.82;;;17.80;99.90;;;;;;5010535;28;20057;-67
2022/06/27 01:08:23;;;;;;;15.30;12.10;;;17.80;99.90;;;;;;4994551;28;20064;-66
2022/06/27 01:10:49;;;;;;;;;;;17.70;99.90;;;;;;5010920;28;20052;-68
2022/06/27 01:13:15;;;;;;;15.63;11.88;;;17.70;99.90;;;;;;5023348;28;19917;-67
2022/06/27 01:15:42;;;;;;;15.15;12.18;;;17.60;99.90;;;;;;4994422;28;20041;-69
2022/06/27 01:18:09;;;;;;;17.10;12.90;;;17.60;99.90;;;;;;5010296;28;20049;-67
2022/06/27 01:20:36;;;;;;;15.82;12.07;;;17.60;99.90;;;;;;5010451;28;20046;-67
2022/06/27 01:23:02;;;;;;;16.77;13.15;;;17.60;99.90;;;;;;5010596;28;20096;-67
2022/06/27 01:25:28;;;;;;;16.30;12.05;;;17.60;99.90;;;;;;5010730;28;20056;-67
2022/06/27 01:27:54;;;;;;;15.88;13.07;;;17.60;99.90;;;;;;5009882;28;20050;-67
2022/06/27 01:30:21;;;;;;;18.10;13.15;;;17.60;99.90;;;;;;5010325;28;20042;-68
2022/06/27 01:32:50;;;;;;;19.13;13.57;;;17.60;99.90;;;;;;5010461;28;20247;-67
2022/06/27 01:35:16;;;;;;;17.50;13.05;;;17.60;99.90;;;;;;4994000;28;20104;-66
2022/06/27 01:37:42;;;;;;;18.30;14.60;;;17.70;99.90;;;;;;5009955;28;20046;-67
2022/06/27 01:40:08;;;;;;;19.55;14.38;;;17.60;99.90;;;;;;4993731;28;20075;-67
2022/06/27 01:42:35;;;;;;;18.80;14.90;;;17.60;99.90;;;;;;5010259;28;20463;-70
2022/06/27 01:45:01;;;;;;;17.95;14.23;;;17.60;99.90;;;;;;5010582;28;20074;-67
2022/06/27 01:47:29;;;;;;;18.73;14.27;;;17.60;99.90;;;;;;4993410;28;20080;-68
2022/06/27 01:49:55;;;;;;;16.42;13.38;;;17.60;99.90;;;;;;4993872;28;20145;-68
2022/06/27 01:52:21;;;;;;;18.38;14.40;;;17.60;99.90;;;;;;4995764;28;20120;-68
2022/06/27 01:54:47;;;;;;;17.52;13.57;;;17.50;99.90;;;;;;4997570;28;20081;-69
2022/06/27 01:57:16;;;;;;;20.60;14.00;;;17.50;99.90;;;;;;5013160;28;20494;-68
2022/06/27 01:59:43;;;;;;;18.65;14.48;;;17.50;99.90;;;;;;5013594;28;20057;-68
2022/06/27 02:02:09;;;;;;;19.20;13.90;;;17.50;99.90;;;;;;4997516;28;20076;-67
2022/06/27 02:04:36;;;;;;;18.98;13.93;;;17.50;99.90;;;;;;4981124;28;20073;-71
2022/06/27 02:07:03;;;;;;;16.90;13.27;;;17.50;99.90;;;;;;5012630;28;20513;-68
2022/06/27 02:09:30;;;;;;;17.65;12.30;;;17.50;99.90;;;;;;4997124;28;20490;-68
2022/06/27 02:11:56;;;;;;;16.63;11.98;;;17.50;99.90;;;;;;4998980;28;20045;-67
2022/06/27 02:14:24;;;;;;;13.27;11.10;;;17.50;99.90;;;;;;5024534;28;20475;-67
2022/06/27 02:16:50;;;;;;;15.48;12.00;;;17.50;99.90;;;;;;4980423;28;20483;-67
2022/06/27 02:19:19;;;;;;;14.75;11.65;;;17.50;99.90;;;;;;4997031;28;20129;-67
2022/06/27 02:21:46;;;;;;;15.27;11.85;;;17.50;99.90;;;;;;4996983;28;20474;-67
2022/06/27 02:24:12;;;;;;;15.07;11.90;;;17.60;99.90;;;;;;5013143;28;20046;-68
2022/06/27 02:26:40;;;;;;;15.05;11.40;;;17.60;99.90;;;;;;4996497;28;20475;-67
2022/06/27 02:29:06;;;;;;;16.40;12.52;;;17.60;99.90;;;;;;5013232;28;20113;-67
2022/06/27 02:31:32;;;;;;;16.30;12.23;;;17.60;99.90;;;;;;5013128;28;20045;-67
2022/06/27 02:33:58;;;;;;;14.13;11.57;;;17.60;99.90;;;;;;5013157;28;20050;-70
2022/06/27 02:36:39;;;;;;;14.95;11.95;;;17.50;99.90;;;;;;5012632;28;20108;-68
2022/06/27 02:39:07;;;;;;;13.70;11.35;;;17.60;99.90;;;;;;4996569;28;20081;-68
2022/06/27 02:41:37;;;;;;;15.57;12.20;;;17.50;99.90;;;;;;5013096;28;20371;-67
2022/06/27 02:44:07;;;;;;;14.05;11.07;;;17.40;99.90;;;;;;5012937;28;20375;-68
2022/06/27 02:46:33;;;;;;;14.70;11.57;;;17.40;99.90;;;;;;4996305;28;20050;-68
2022/06/27 02:49:01;;;;;;;18.80;12.32;;;17.40;99.90;;;;;;4996631;28;20410;-67
2022/06/27 02:51:33;;;;;;;17.73;12.02;;;17.40;99.90;;;;;;5012493;28;20479;-68
2022/06/27 02:54:16;;;;;;;15.98;11.85;;;17.30;99.90;;;;;;5012848;28;20044;-68
2022/06/27 02:56:47;;;;;;;16.05;12.43;;;17.30;99.90;;;;;;5012065;28;20038;-68
2022/06/27 02:59:23;;;;;;;15.68;12.25;;;17.20;99.90;;;;;;4995956;28;20551;-68
2022/06/27 03:01:50;;;;;;;18.92;12.63;;;17.20;99.90;;;;;;4996100;28;20080;-68
2022/06/27 03:04:16;;;;;;;19.85;13.93;;;17.30;99.90;;;;;;4996194;28;20049;-68
2022/06/27 03:06:44;;;;;;;18.23;13.05;;;17.30;99.90;;;;;;4995274;28;20119;-69
2022/06/27 03:09:10;;;;;;;13.90;11.77;;;17.30;99.90;;;;;;5012011;28;20046;-69
2022/06/27 03:11:36;;;;;;;15.70;12.38;;;17.30;99.90;;;;;;5012339;28;20057;-70
2022/06/27 03:14:02;;;;;;;14.82;11.63;;;17.30;99.90;;;;;;5025438;28;20076;-68
2022/06/27 03:16:29;;;;;;;12.73;10.82;;;17.30;99.90;;;;;;5011675;28;20471;-68
2022/06/27 03:18:55;;;;;;;13.98;10.95;;;17.30;99.90;;;;;;5012243;28;20053;-68
2022/06/27 03:21:21;;;;;;;14.15;10.75;;;17.20;99.90;;;;;;4995612;28;20474;-69
2022/06/27 03:23:48;;;;;;;11.32;9.93;;;17.30;99.90;;;;;;4995800;28;20103;-68
2022/06/27 03:26:17;;;;;;;14.98;10.40;;;17.30;99.90;;;;;;4995265;28;20150;-72
2022/06/27 03:28:44;;;;;;;10.68;9.15;;;17.30;99.90;;;;;;4995580;28;20057;-69
2022/06/27 03:31:10;;;;;;;10.93;9.57;;;17.30;99.90;;;;;;5011869;28;20050;-70
2022/06/27 03:33:37;;;;;;;10.40;8.20;;;17.30;99.90;;;;;;4979463;28;20482;-68
2022/06/27 03:36:04;;;;;;;10.65;8.18;;;17.30;99.90;;;;;;5011577;28;20533;-68
2022/06/27 03:38:30;;;;;;;10.15;8.10;;;17.30;99.90;;;;;;4994921;28;20072;-68
2022/06/27 03:40:57;;;;;;;8.68;7.53;;;17.30;99.90;;;;;;5011730;28;20042;-69
2022/06/27 03:43:23;;;;;;;8.35;7.55;;;17.30;99.90;;;;;;4994952;28;20076;-69
2022/06/27 03:45:49;;;;;;;8.98;7.60;;;17.30;99.90;;;;;;4995267;28;20061;-68
2022/06/27 03:51:00;;;;;;;12.23;8.52;;;17.20;99.90;;;;;;5011159;28;20092;-71
2022/06/27 03:53:27;;;;;;;8.68;7.18;;;17.20;99.90;;;;;;5011161;28;20042;-68
2022/06/27 03:55:53;;;;;;;8.57;7.28;;;17.20;99.90;;;;;;5011164;28;20128;-69
2022/06/27 03:58:19;;;;;;;10.23;7.93;;;17.20;99.90;;;;;;4995101;28;20049;-70
2022/06/27 04:00:45;;;;;;;10.27;8.55;;;17.10;99.90;;;;;;5012339;28;20390;-68
2022/06/27 04:03:11;;;;;;;9.57;8.52;;;17.10;99.90;;;;;;5011196;28;20382;-68
2022/06/27 04:05:37;;;;;;;9.32;8.20;;;17.10;99.90;;;;;;5010962;28;20380;-68
2022/06/27 04:08:03;;;;;;;8.48;7.47;;;17.10;99.90;;;;;;5010599;28;20045;-68
2022/06/27 04:10:28;;;;;;;9.98;8.07;;;17.00;99.90;;;;;;4993906;28;20093;-68
2022/06/27 04:12:54;;;;;;;8.65;7.35;;;17.00;99.90;;;;;;4994014;28;20084;-69
2022/06/27 04:15:23;;;;;;;6.50;5.88;;;17.00;99.90;;;;;;5010656;28;20443;-69
2022/06/27 04:17:49;;;;;;;7.55;5.70;;;17.00;99.90;;;;;;5011067;28;20128;-68
2022/06/27 04:20:15;;;;;;;5.40;4.90;;;17.00;99.90;;;;;;5011139;28;20519;-69
2022/06/27 04:22:41;;;;;;;7.35;5.45;;;17.00;99.90;;;;;;5011177;28;20414;-68
2022/06/27 04:25:07;;;;;;;6.40;5.78;;;17.00;99.90;;;;;;4994405;28;20053;-69
2022/06/27 04:27:33;;;;;;;7.15;6.45;;;17.10;99.90;;;;;;5010868;28;20482;-69
2022/06/27 04:30:00;;;;;;;6.63;5.93;;;17.10;99.90;;;;;;4994851;28;20387;-68
2022/06/27 04:32:26;;;;;;;8.15;6.55;;;17.10;99.90;;;;;;5011126;28;20049;-68
2022/06/27 04:34:52;;;;;;;8.70;5.95;;;17.00;99.90;;;;;;4994643;28;20045;-68
2022/06/27 04:37:18;;;;;;;8.27;6.07;;;17.00;99.90;;;;;;5010461;28;20071;-68
2022/06/27 04:39:45;;;;;;;6.78;5.60;;;16.90;99.90;;;;;;4994059;28;20133;-68
2022/06/27 04:42:11;;;;;;;8.32;5.40;;;16.90;99.90;;;;;;5010957;28;20053;-68
2022/06/27 04:44:40;;;;;;;8.95;5.65;;;16.90;99.90;;;;;;5010892;28;20046;-68
2022/06/27 04:47:08;;;;;;;5.80;5.22;;;16.80;99.90;;;;;;5010345;28;20046;-68
2022/06/27 04:49:38;;;;;;;6.80;5.50;;;16.80;99.90;;;;;;5010646;28;20050;-70
2022/06/27 04:52:07;;;;;;;6.65;5.30;;;16.80;99.90;;;;;;4994397;28;20089;-72
2022/06/27 04:54:36;;;;;;;6.32;5.63;;;16.80;99.90;;;;;;4994506;28;20382;-67
2022/06/27 04:57:03;;;;;;;7.60;6.20;;;16.90;99.90;;;;;;4994297;28;20075;-69
2022/06/27 04:59:29;;;;;;;6.85;6.15;;;16.90;99.90;;;;;;4994505;28;20037;-68
2022/06/27 05:01:55;;;;;;;8.00;7.00;;;16.90;99.90;;;;;;5010747;28;20143;-68
2022/06/27 05:04:21;;;;;;;9.82;7.75;;;16.90;99.90;;;;;;4994208;28;20077;-67
2022/06/27 05:06:48;;;;;;;9.20;8.02;;;16.90;99.90;;;;;;4977053;28;20054;-69
2022/06/27 05:09:15;;;;;;;11.60;8.98;;;16.90;99.90;;;;;;4994439;28;20091;-68
2022/06/27 05:11:41;;;;;;;10.48;9.30;;;17.00;99.90;;;;;;5010558;28;20046;-68
2022/06/27 05:14:08;;;;;;;10.32;8.55;;;17.00;99.90;;;;;;4981676;28;20097;-70
2022/06/27 05:16:34;;;;;;;11.82;8.25;;;17.00;99.90;;;;;;4993950;28;20520;-68
2022/06/27 05:19:00;;;;;;;9.45;8.18;;;17.10;99.90;;;;;;5010451;28;20046;-70
2022/06/27 05:21:25;;;;;;;10.00;7.60;;;17.10;99.90;;;;;;5010341;28;20042;-68
2022/06/27 05:23:52;;;;;;;9.00;7.55;;;17.20;99.90;;;;;;4978324;28;20056;-68
2022/06/27 05:26:18;;;;;;;8.23;6.95;;;17.30;99.90;;;;;;4977885;28;20042;-68
2022/06/27 05:28:44;;;;;;;7.72;6.93;;;17.50;99.90;;;;;;4998002;28;20426;-67
2022/06/27 05:31:10;;;;;;;7.85;7.05;;;17.50;99.90;;;;;;4981702;28;20049;-67
2022/06/27 05:33:36;;;;;;;8.02;7.22;;;17.60;99.90;;;;;;5014270;28;20058;-68
2022/06/27 05:36:04;;;;;;;8.80;7.00;;;17.70;99.90;;;;;;4981343;28;20048;-73
2022/06/27 05:38:31;;;;;;;8.05;7.15;;;17.70;99.90;;;;;;4997988;28;20042;-67
2022/06/27 05:40:57;;;;;;;7.43;6.05;;;17.70;99.90;;;;;;5014201;28;20552;-68
2022/06/27 05:43:23;;;;;;;8.20;5.90;;;17.80;99.90;;;;;;5014178;28;20057;-68
2022/06/27 05:45:48;;;;;;;6.03;5.18;;;17.70;99.90;;;;;;4997806;28;20045;-68
2022/06/27 05:48:15;;;;;;;6.45;5.82;;;17.90;99.90;;;;;;4997277;28;20368;-68
2022/06/27 05:50:40;;;;;;;8.65;7.35;;;17.80;99.90;;;;;;4997668;28;20048;-70
2022/06/27 05:53:06;;;;;;;9.75;7.80;;;17.90;99.90;;;;;;4997758;28;20116;-68
2022/06/27 05:55:33;;;;;;;8.23;7.38;;;17.80;99.90;;;;;;5014048;28;20455;-68
2022/06/27 05:58:02;;;;;;;8.23;7.43;;;17.90;99.90;;;;;;5013639;28;20034;-67
2022/06/27 06:00:28;;;;;;;9.57;8.43;;;17.90;99.90;;;;;;5013817;28;20121;-68
2022/06/27 06:02:55;;;;;;;9.02;8.13;;;18.00;99.90;;;;;;5013872;28;20091;-67
2022/06/27 06:05:21;;;;;;;8.50;7.70;;;18.00;99.90;;;;;;5014581;28;20046;-68
2022/06/27 06:07:48;;;;;;;10.75;8.98;;;18.00;99.90;;;;;;5016471;28;20379;-68
2022/06/27 06:10:14;;;;;;;11.95;8.40;;;18.10;99.90;;;;;;5016756;28;20041;-70
2022/06/27 06:12:40;;;;;;;9.00;8.10;;;18.20;99.90;;;;;;5000412;28;20053;-67
2022/06/27 06:15:08;;;;;;;9.30;7.90;;;18.20;99.90;;;;;;5016845;28;20116;-68
2022/06/27 06:17:36;;;;;;;9.50;8.25;;;18.20;99.90;;;;;;5016362;28;20045;-70
2022/06/27 06:20:05;;;;;;;9.00;8.05;;;18.30;99.90;;;;;;5000543;28;20041;-67
2022/06/27 06:22:31;;;;;;;10.02;7.95;;;18.20;99.90;;;;;;5016893;28;20478;-67
2022/06/27 06:24:58;;;;;;;8.10;6.82;;;18.30;99.90;;;;;;4983583;28;20048;-67
2022/06/27 06:27:24;;;;;;;7.25;6.55;;;18.30;99.90;;;;;;5016016;28;20176;-68
2022/06/27 06:29:51;;;;;;;7.40;6.57;;;18.30;99.90;;;;;;5016555;28;20133;-68
2022/06/27 06:32:17;;;;;;;7.43;6.40;;;18.20;99.90;;;;;;5000211;28;20111;-68
2022/06/27 06:34:43;;;;;;;8.60;6.53;;;18.20;99.90;;;;;;5016607;28;20049;-70
2022/06/27 06:37:09;;;;;;;8.63;7.20;;;18.20;99.90;;;;;;5015460;28;20049;-68
2022/06/27 06:39:36;;;;;;;8.23;6.45;;;18.10;99.90;;;;;;4999745;28;20064;-68
2022/06/27 06:42:04;;;;;;;9.25;7.18;;;18.10;99.90;;;;;;5000026;28;20056;-67
2022/06/27 06:44:30;;;;;;;10.07;7.80;;;18.10;99.90;;;;;;5016323;28;20474;-67
2022/06/27 06:46:56;;;;;;;9.15;7.30;;;18.10;99.90;;;;;;5015624;28;20045;-71
2022/06/27 06:49:25;;;;;;;8.40;7.22;;;18.00;99.90;;;;;;5016210;28;20037;-68
2022/06/27 06:51:51;;;;;;;8.07;7.28;;;18.00;99.90;;;;;;5016298;28;20116;-67
2022/06/27 06:54:20;;;;;;;10.35;7.53;;;17.90;99.90;;;;;;5032910;28;20057;-68
2022/06/27 06:56:52;;;;;;;8.80;7.90;;;17.90;99.90;;;;;;5015440;28;20398;-68
2022/06/27 06:59:19;;;;;;;10.45;8.27;;;17.80;99.90;;;;;;4999893;28;20052;-67
2022/06/27 07:01:47;;;;;;;9.68;8.63;;;17.80;99.90;;;;;;5016052;28;20131;-68
2022/06/27 07:04:15;;;;;;;9.90;8.38;;;17.90;99.90;;;;;;4999599;28;20045;-69
2022/06/27 07:06:41;;;;;;;9.63;8.02;;;17.90;99.90;;;;;;4998680;28;20056;-67
2022/06/27 07:09:07;;;;;;;10.20;8.23;;;17.90;99.90;;;;;;4999190;28;20034;-68
2022/06/27 07:11:35;;;;;;;9.88;8.40;;;18.00;99.90;;;;;;5015834;28;20425;-68
2022/06/27 07:14:01;;;;;;;11.02;9.02;;;18.00;99.90;;;;;;5015569;28;20532;-68
2022/06/27 07:16:27;;;;;;;10.68;8.70;;;18.10;99.90;;;;;;4999159;28;20041;-68
2022/06/27 07:18:57;;;;;;;11.07;8.43;;;18.20;99.90;;;;;;5015710;28;20045;-67
2022/06/27 07:21:26;;;;;;;11.17;9.23;;;18.20;99.90;;;;;;4999016;28;20045;-69
2022/06/27 07:23:53;;;;;;;12.10;9.32;;;18.20;99.90;;;;;;4999169;28;20048;-67
2022/06/27 07:26:20;;;;;;;11.15;8.57;;;18.20;99.90;;;;;;4998511;28;20037;-67
2022/06/27 07:28:47;;;;;;;9.32;8.43;;;18.20;99.90;;;;;;4999224;28;20656;-68
2022/06/27 07:31:14;;;;;;;9.82;8.65;;;18.20;99.90;;;;;;5015169;28;20131;-69
2022/06/27 07:33:41;;;;;;;9.32;8.35;;;18.20;99.90;;;;;;5015209;28;20053;-67
2022/06/27 07:36:11;;;;;;;12.43;8.70;;;18.20;99.90;;;;;;4998510;28;20087;-69
2022/06/27 07:38:40;;;;;;;9.82;8.35;;;18.20;99.90;;;;;;4999063;28;20044;-67
2022/06/27 07:41:06;;;;;;;10.93;8.40;;;18.10;99.90;;;;;;4998967;28;20298;-67
2022/06/27 07:43:33;;;;;;;9.50;8.43;;;18.10;99.90;;;;;;4999045;28;20076;-69
2022/06/27 07:46:01;;;;;;;9.55;8.07;;;18.00;99.90;;;;;;5014766;28;20048;-68
2022/06/27 07:48:27;;;;;;;10.23;8.38;;;17.90;99.90;;;;;;4998687;28;20091;-70
2022/06/27 07:50:54;;;;;;;9.82;8.48;;;17.90;99.90;;;;;;5014190;28;20033;-68
2022/06/27 07:53:20;;;;;;;10.02;8.30;;;17.90;99.90;;;;;;5014832;28;20045;-68
2022/06/27 07:55:54;;;;;;;9.95;8.80;;;17.80;99.90;;;;;;5015053;28;20058;-71
2022/06/27 07:58:30;;;;;;;11.20;9.00;;;17.80;99.90;;;;;;4998891;28;20052;-67
2022/06/27 08:00:58;;;;;;;10.52;9.43;;;17.90;99.90;;;;;;4998463;28;20112;-68
2022/06/27 08:03:36;;;;;;;9.30;8.35;;;17.90;99.90;;;;;;5014793;28;20041;-68
2022/06/27 08:06:08;;;;;;;11.75;9.88;;;18.00;99.90;;;;;;4994380;28;20060;-68
2022/06/27 08:08:39;;;;;;;10.65;9.55;;;18.10;99.90;;;;;;5011066;28;20053;-69
2022/06/27 08:11:08;;;;;;;10.77;9.68;;;18.20;99.90;;;;;;5011299;28;20056;-72
2022/06/27 08:13:35;;;;;;;11.05;9.75;;;18.20;99.90;;;;;;5024807;28;20114;-68
2022/06/27 08:16:02;;;;;;;11.70;10.25;;;18.40;99.90;;;;;;5011032;28;20069;-68
2022/06/27 08:18:31;;;;;;;11.23;10.02;;;18.50;99.90;;;;;;4978948;28;20053;-68
2022/06/27 08:21:00;;;;;;;10.65;9.50;;;18.70;99.90;;;;;;5011291;28;20038;-69
2022/06/27 08:23:26;;;;;;;10.95;9.85;;;18.80;99.90;;;;;;4995066;28;20139;-67
2022/06/27 08:25:53;;;;;;;10.73;9.63;;;18.90;99.90;;;;;;4978417;28;20088;-67
2022/06/27 08:28:20;;;;;;;9.68;8.70;;;18.90;99.90;;;;;;5010824;28;20045;-67
2022/06/27 08:30:46;;;;;;;9.25;7.88;;;19.00;99.90;;;;;;5011127;28;20448;-69
2022/06/27 08:33:13;;;;;;;8.95;8.05;;;19.00;99.90;;;;;;5011237;28;20041;-67
2022/06/27 08:35:47;;;;;;;13.07;8.80;;;18.90;99.90;;;;;;4994896;28;20077;-67
2022/06/27 08:38:16;;;;;;;9.60;8.60;;;19.00;99.90;;;;;;5010810;28;20367;-67
2022/06/27 08:40:43;;;;;;;8.80;7.90;;;19.10;99.90;;;;;;5010849;28;20113;-67
2022/06/27 08:43:11;;;;;;;10.20;8.00;;;19.20;99.90;;;;;;4994467;28;20478;-68
2022/06/27 08:45:37;;;;;;;8.15;7.35;;;19.10;99.90;;;;;;4994514;28;20041;-67
2022/06/27 08:48:11;;;;;;;8.32;7.45;;;19.30;99.90;;;;;;5010483;28;20045;-68
2022/06/27 08:50:37;;;;;;;8.00;7.20;;;19.40;99.90;;;;;;5010837;28;20050;-67
2022/06/27 08:53:04;;;;;;;8.45;7.55;;;19.40;99.90;;;;;;5010995;28;20405;-67
2022/06/27 08:55:31;;;;;;;8.93;7.38;;;19.50;99.90;;;;;;4994599;28;20124;-67
2022/06/27 08:58:10;;;;;;;7.53;6.78;;;19.40;99.90;;;;;;5010327;28;20050;-68
2022/06/27 09:00:45;;;;;;;8.38;7.47;;;19.40;99.90;;;;;;5011720;28;20112;-67
2022/06/27 09:03:12;;;;;;;8.25;7.13;;;19.40;99.90;;;;;;5014888;28;20443;-67
2022/06/27 09:05:38;;;;;;;10.18;7.05;;;19.30;99.90;;;;;;5014666;28;20128;-67
2022/06/27 09:08:06;;;;;;;7.30;6.60;;;19.30;99.90;;;;;;5014189;28;20116;-67
2022/06/27 09:10:39;;;;;;;7.47;6.60;;;19.10;99.90;;;;;;5014488;28;20212;-67
2022/06/27 09:13:18;;;;;;;7.25;6.50;;;19.00;99.90;;;;;;5026447;28;20046;-70
2022/06/27 09:15:52;;;;;;;8.23;7.20;;;18.90;99.90;;;;;;5014265;28;20073;-68
2022/06/27 09:18:28;;;;;;;7.38;6.68;;;18.80;99.90;;;;;;5014583;28;20038;-68
2022/06/27 09:21:05;;;;;;;7.47;6.35;;;18.80;99.90;;;;;;5014566;28;20483;-67
2022/06/27 09:23:40;;;;;;;7.25;6.55;;;18.70;99.90;;;;;;5014577;28;20037;-67
2022/06/27 09:26:13;;;;;;;7.95;6.57;;;18.70;99.90;;;;;;5014242;28;20042;-68
2022/06/27 09:29:00;;;;;;;7.78;6.40;;;18.70;99.90;;;;;;5014128;28;20131;-68
2022/06/27 09:31:26;;;;;;;8.90;6.60;;;18.70;99.90;;;;;;5014235;28;20049;-68
2022/06/27 09:34:04;;;;;;;8.70;5.90;;;18.70;99.90;;;;;;5014532;28;20053;-68
2022/06/27 09:36:32;;;;;;;6.80;6.10;;;18.70;99.90;;;;;;5013676;28;20072;-68
2022/06/27 09:38:59;;;;;;;7.68;6.30;;;18.70;99.90;;;;;;5014103;28;20041;-67
2022/06/27 09:41:32;;;;;;;8.63;6.93;;;18.70;99.90;;;;;;5014231;28;20049;-67
2022/06/27 09:44:11;;;;;;;6.80;6.07;;;18.80;99.90;;;;;;4982413;28;20210;-68
2022/06/27 09:46:44;;;;;;;8.02;6.40;;;18.70;99.90;;;;;;5013738;28;20100;-67
2022/06/27 09:49:12;;;;;;;7.13;6.18;;;18.70;99.90;;;;;;5013908;28;20308;-67
2022/06/27 09:51:42;;;;;;;8.10;7.30;;;18.60;99.90;;;;;;5013922;28;20073;-67
2022/06/27 09:54:11;;;;;;;9.73;8.65;;;18.50;99.90;;;;;;5013717;28;20045;-67
2022/06/27 09:56:39;;;;;;;11.15;9.30;;;18.40;99.90;;;;;;4997420;28;20188;-67
2022/06/27 09:59:12;;;;;;;10.90;9.48;;;18.50;99.90;;;;;;4997513;28;20390;-71
2022/06/27 10:01:42;;;;;;;9.05;7.10;;;18.50;99.90;;;;;;5013795;28;20053;-68
2022/06/27 10:04:09;;;;;;;7.97;7.07;;;18.60;99.90;;;;;;5013669;28;20042;-68
2022/06/27 10:06:42;;;;;;;8.50;7.28;;;18.60;99.90;;;;;;4996491;28;20061;-68
2022/06/27 10:09:09;;;;;;;8.55;7.70;;;18.70;99.90;;;;;;5013254;28;20394;-67
2022/06/27 10:11:36;;;;;;;8.63;7.80;;;18.80;99.90;;;;;;4997339;28;20046;-70
2022/06/27 10:14:20;;;;;;;9.43;7.43;;;18.90;99.90;;;;;;5026394;28;20038;-68
2022/06/27 10:16:56;;;;;;;11.30;8.52;;;19.10;99.90;;;;;;5013031;28;20084;-68
2022/06/27 10:19:24;;;;;;;8.32;7.53;;;19.10;99.90;;;;;;4980706;28;20038;-68
2022/06/27 10:21:51;;;;;;;10.07;8.52;;;19.10;99.90;;;;;;4997271;28;20056;-68
2022/06/27 10:24:26;;;;;;;10.70;8.60;;;19.10;99.90;;;;;;5013550;28;20065;-67
2022/06/27 10:26:54;;;;;;;9.85;8.77;;;19.30;99.90;;;;;;4996559;28;20042;-67
2022/06/27 10:29:45;;;;;;;8.85;7.95;;;19.50;99.90;;;;;;5013421;28;20088;-68
2022/06/27 10:32:40;;;;;;;9.43;8.15;;;19.70;99.90;;;;;;5013134;28;20046;-69
2022/06/27 10:35:07;;;;;;;9.15;8.25;;;19.80;99.90;;;;;;4986265;28;20129;-68
2022/06/27 10:37:35;;;;;;;9.27;8.38;;;19.90;99.90;;;;;;4996601;28;20065;-67
2022/06/27 10:40:19;;;;;;;9.20;8.20;;;20.00;99.90;;;;;;5012839;28;20077;-68
2022/06/27 10:42:51;;;;;;;7.45;6.75;;;19.90;99.90;;;;;;5013061;28;20068;-67
2022/06/27 10:45:20;;;;;;;7.20;5.93;;;19.80;99.90;;;;;;5013078;28;20046;-68
2022/06/27 10:48:26;;;;;;;6.35;5.75;;;19.80;99.90;;;;;;5012390;28;20050;-67
2022/06/27 10:50:52;;;;;;;7.95;7.18;;;19.90;99.90;;;;;;4996265;28;20535;-68
2022/06/27 10:53:23;;;;;;;7.55;6.80;;;20.00;99.90;;;;;;4996646;28;20038;-68
2022/06/27 10:55:48;;;;;;;8.25;7.22;;;20.00;99.90;;;;;;5012085;28;20045;-69
2022/06/27 10:58:28;;;;;;;8.02;7.22;;;19.90;99.90;;;;;;5012809;28;20046;-68
2022/06/27 11:01:12;;;;;;;8.27;6.85;;;19.80;99.90;;;;;;4996242;28;20418;-67
2022/06/27 11:03:39;;;;;;;7.60;6.72;;;19.80;99.90;;;;;;4996248;28;20482;-68
2022/06/27 11:06:06;;;;;;;9.57;7.53;;;19.80;99.90;;;;;;4999077;28;20136;-68
2022/06/27 11:08:37;;;;;;;8.00;7.22;;;19.90;99.90;;;;;;5015420;28;20046;-67
2022/06/27 11:11:05;;;;;;;7.82;7.07;;;19.90;99.90;;;;;;4999672;28;20500;-67
2022/06/27 11:13:54;;;;;;;8.05;7.35;;;19.80;99.90;;;;;;5029044;28;20056;-67
2022/06/27 11:16:29;;;;;;;7.75;7.05;;;19.80;99.90;;;;;;5015455;28;20037;-67
2022/06/27 11:19:02;;;;;;;8.80;7.82;;;19.80;99.90;;;;;;5015630;28;20124;-67
2022/06/27 11:21:38;;;;;;;8.10;7.30;;;19.70;99.90;;;;;;5015484;28;20076;-67
2022/06/27 11:24:07;;;;;;;8.25;7.50;;;19.60;99.90;;;;;;4999193;28;20121;-69
2022/06/27 11:26:36;;;;;;;7.78;6.95;;;19.50;99.90;;;;;;5015105;28;20045;-67
2022/06/27 11:32:03;;;;;;;9.57;7.20;;;19.60;99.90;;;;;;5015145;28;20053;-69
2022/06/27 11:34:34;;;;;;;7.90;7.10;;;19.60;99.90;;;;;;5015006;28;20049;-67
2022/06/27 11:37:11;;;;;;;9.68;7.97;;;19.80;99.90;;;;;;5015094;28;20128;-67
2022/06/27 11:39:37;;;;;;;6.63;5.93;;;19.90;99.90;;;;;;5015030;28;20042;-67
2022/06/27 11:42:10;;;;;;;7.05;4.88;;;20.00;99.90;;;;;;4979623;28;20402;-67
2022/06/27 11:44:59;;;;;;;5.45;4.60;;;20.00;99.90;;;;;;4995281;28;20573;-67
2022/06/27 11:47:28;;;;;;;5.68;5.07;;;20.20;99.90;;;;;;4998271;28;20097;-68
2022/06/27 11:50:05;;;;;;;6.88;5.40;;;20.50;99.90;;;;;;5015122;28;20033;-67
2022/06/27 11:52:38;;;;;;;4.63;4.22;;;20.70;99.90;;;;;;5015209;28;20045;-67
2022/06/27 11:55:24;;;;;;;4.38;3.90;;;20.80;99.90;;;;;;5015002;28;20052;-70
2022/06/27 11:57:54;;;;;;;4.30;4.00;;;20.90;99.90;;;;;;5014983;28;20045;-69
2022/06/27 12:00:38;;;;;;;4.72;4.32;;;21.00;99.90;;;;;;5015001;28;20057;-68
2022/06/27 12:03:12;;;;;;;4.68;4.10;;;21.10;99.90;;;;;;4982459;28;20049;-69
2022/06/27 12:05:40;;;;;;;6.00;5.10;;;21.20;99.90;;;;;;5014620;28;20120;-67
2022/06/27 12:08:08;;;;;;;7.72;5.32;;;21.10;99.90;;;;;;5014246;28;20053;-68
2022/06/27 12:13:39;;;;;;;5.90;5.30;;;21.10;99.90;;;;;;5027597;28;20151;-67
2022/06/27 12:16:08;;;;;;;6.47;5.25;;;21.20;99.90;;;;;;5014088;28;20045;-71
2022/06/27 12:18:35;;;;;;;5.25;4.75;;;21.20;99.90;;;;;;4998297;28;20545;-67
2022/06/27 12:21:01;;;;;;;5.75;5.10;;;21.20;99.90;;;;;;5014517;28;20049;-67
2022/06/27 12:23:27;;;;;;;6.00;5.40;;;21.10;99.90;;;;;;4998066;28;20390;-69
2022/06/27 12:25:53;;;;;;;6.70;5.43;;;21.10;99.90;;;;;;4997657;28;20047;-68
2022/06/27 12:28:18;;;;;;;6.88;5.43;;;20.90;99.90;;;;;;4997643;28;20091;-68
2022/06/27 12:30:44;;;;;;;5.60;5.00;;;20.80;99.90;;;;;;4982363;28;20073;-68
2022/06/27 12:33:10;;;;;;;5.15;4.65;;;20.70;99.90;;;;;;4998150;28;20135;-67
2022/06/27 12:35:39;;;;;;;7.05;5.20;;;20.70;99.90;;;;;;5013787;28;20124;-68
2022/06/27 12:38:07;;;;;;;5.00;4.50;;;20.60;99.90;;;;;;5014122;28;20486;-71
2022/06/27 12:40:33;;;;;;;5.82;4.63;;;20.50;99.90;;;;;;4998087;28;20053;-67
2022/06/27 12:42:59;;;;;;;5.55;4.70;;;20.50;99.90;;;;;;4997734;28;20049;-68
2022/06/27 12:45:25;;;;;;;6.82;5.00;;;20.60;99.90;;;;;;4978452;28;20053;-67
2022/06/27 12:47:51;;;;;;;5.85;5.25;;;20.60;99.90;;;;;;4994830;28;20046;-68
2022/06/27 12:50:16;;;;;;;6.40;5.68;;;20.60;99.90;;;;;;5014194;28;20393;-68
2022/06/27 12:52:43;;;;;;;7.20;6.50;;;20.60;99.90;;;;;;5014143;28;20087;-67
2022/06/27 12:55:09;;;;;;;8.13;6.60;;;20.60;99.90;;;;;;5014036;28;20052;-69
2022/06/27 12:57:35;;;;;;;8.23;6.38;;;20.50;99.90;;;;;;5013238;28;20045;-71